createdAt,value
2018-12-15T00:00:53.161Z,42.50
2018-12-15T00:01:53.127Z,42.70
2018-12-15T00:02:53.120Z,43.30
2018-12-15T00:03:53.125Z,42.00
2018-12-15T00:04:53.093Z,41.50
2018-12-15T00:05:53.127Z,40.70
2018-12-15T00:06:53.083Z,40.20
2018-12-15T00:07:53.077Z,38.70
2018-12-15T00:08:53.069Z,42.30
2018-12-15T00:09:53.054Z,40.00
2018-12-15T00:10:53.029Z,40.90
2018-12-15T00:11:53.034Z,40.20
2018-12-15T00:12:53.020Z,38.70
2018-12-15T00:13:52.997Z,37.70
2018-12-15T00:14:53.000Z,40.60
2018-12-15T00:15:52.978Z,35.20
2018-12-15T00:16:52.988Z,38.80
2018-12-15T00:17:52.976Z,38.00
2018-12-15T00:18:52.954Z,37.90
2018-12-15T00:19:52.932Z,36.50
2018-12-15T00:20:52.919Z,35.90
2018-12-15T00:21:52.943Z,37.60
2018-12-15T00:22:52.904Z,38.20
2018-12-15T00:23:52.888Z,36.70
2018-12-15T00:24:52.879Z,38.70
2018-12-15T00:25:52.870Z,38.00
2018-12-15T00:26:52.873Z,35.60
2018-12-15T00:27:52.870Z,37.90
2018-12-15T00:28:52.877Z,36.90
2018-12-15T00:29:52.862Z,37.70
2018-12-15T00:30:52.820Z,37.50
2018-12-15T00:31:52.808Z,38.00
2018-12-15T00:32:52.819Z,36.50
2018-12-15T00:33:52.791Z,35.80
2018-12-15T00:34:52.803Z,35.10
2018-12-15T00:35:52.767Z,35.50
2018-12-15T00:36:52.747Z,35.90
2018-12-15T00:37:52.815Z,35.60
2018-12-15T00:38:52.752Z,33.10
2018-12-15T00:39:52.714Z,35.50
2018-12-15T00:40:52.722Z,33.60
2018-12-15T00:41:52.728Z,34.50
2018-12-15T00:42:52.684Z,33.60
2018-12-15T00:43:52.688Z,32.90
2018-12-15T00:44:52.667Z,33.80
2018-12-15T00:45:52.654Z,33.70
2018-12-15T00:46:52.652Z,33.20
2018-12-15T00:47:52.657Z,36.30
2018-12-15T00:48:52.638Z,35.90
2018-12-15T00:49:52.615Z,34.50
2018-12-15T00:50:52.629Z,36.00
2018-12-15T00:51:52.588Z,35.50
2018-12-15T00:52:52.590Z,34.50
2018-12-15T00:53:52.600Z,35.50
2018-12-15T00:54:52.553Z,36.30
2018-12-15T00:55:52.567Z,35.50
2018-12-15T00:56:52.548Z,36.40
2018-12-15T00:57:52.523Z,37.00
2018-12-15T00:58:52.525Z,37.70
2018-12-15T00:59:52.533Z,35.30
2018-12-15T01:00:52.488Z,37.20
2018-12-15T01:01:52.512Z,36.00
2018-12-15T01:02:52.486Z,35.20
2018-12-15T01:03:52.491Z,36.90
2018-12-15T01:04:52.491Z,35.50
2018-12-15T01:05:52.452Z,35.70
2018-12-15T01:06:52.425Z,38.20
2018-12-15T01:07:52.435Z,38.50
2018-12-15T01:08:52.403Z,37.00
2018-12-15T01:09:52.432Z,37.90
2018-12-15T01:10:52.399Z,38.90
2018-12-15T01:11:52.369Z,38.50
2018-12-15T01:12:52.359Z,38.10
2018-12-15T01:13:52.385Z,38.40
2018-12-15T01:14:52.361Z,39.40
2018-12-15T01:15:52.347Z,35.80
2018-12-15T01:16:52.318Z,37.10
2018-12-15T01:17:52.307Z,38.40
2018-12-15T01:18:52.299Z,41.00
2018-12-15T01:19:52.281Z,38.90
2018-12-15T01:20:52.313Z,40.00
2018-12-15T01:21:52.276Z,39.10
2018-12-15T01:22:52.255Z,40.50
2018-12-15T01:23:52.237Z,39.40
2018-12-15T01:24:52.246Z,39.80
2018-12-15T01:25:52.293Z,40.60
2018-12-15T01:26:52.203Z,39.10
2018-12-15T01:27:52.197Z,40.00
2018-12-15T01:28:52.203Z,38.60
2018-12-15T01:29:52.194Z,38.30
2018-12-15T01:30:52.201Z,38.60
2018-12-15T01:31:52.171Z,38.10
2018-12-15T01:32:52.149Z,38.10
2018-12-15T01:33:52.142Z,40.10
2018-12-15T01:34:52.121Z,38.60
2018-12-15T01:35:52.140Z,38.20
2018-12-15T01:36:52.123Z,39.20
2018-12-15T01:37:52.093Z,39.00
2018-12-15T01:38:52.081Z,37.30
2018-12-15T01:39:52.067Z,38.80
2018-12-15T01:40:52.052Z,36.60
2018-12-15T01:41:52.153Z,37.50
2018-12-15T01:42:52.070Z,36.00
2018-12-15T01:43:52.040Z,37.70
2018-12-15T01:44:52.011Z,36.00
2018-12-15T01:45:52.010Z,37.80
2018-12-15T01:46:52.009Z,37.10
2018-12-15T01:47:52.002Z,36.90
2018-12-15T01:48:51.976Z,38.80
2018-12-15T01:49:51.958Z,38.80
2018-12-15T01:50:51.969Z,36.20
2018-12-15T01:51:51.979Z,36.50
2018-12-15T01:52:51.948Z,36.50
2018-12-15T01:53:51.920Z,37.30
2018-12-15T01:54:51.898Z,37.40
2018-12-15T01:55:51.900Z,38.50
2018-12-15T01:56:51.923Z,36.80
2018-12-15T01:57:51.918Z,37.90
2018-12-15T01:58:51.863Z,35.90
2018-12-15T01:59:51.850Z,38.60
2018-12-15T02:00:51.851Z,37.20
2018-12-15T02:01:51.828Z,37.40
2018-12-15T02:02:51.840Z,38.40
2018-12-15T02:03:51.819Z,38.30
2018-12-15T02:04:51.811Z,39.40
2018-12-15T02:05:51.794Z,37.30
2018-12-15T02:06:51.782Z,37.80
2018-12-15T02:07:51.762Z,37.30
2018-12-15T02:08:51.786Z,37.30
2018-12-15T02:09:51.748Z,38.60
2018-12-15T02:10:51.731Z,39.60
2018-12-15T02:11:51.721Z,38.50
2018-12-15T02:12:51.714Z,38.70
2018-12-15T02:13:51.731Z,39.60
2018-12-15T02:14:51.689Z,40.10
2018-12-15T02:15:51.674Z,38.50
2018-12-15T02:16:51.659Z,39.40
2018-12-15T02:17:51.670Z,38.40
2018-12-15T02:18:51.673Z,37.70
2018-12-15T02:19:51.630Z,39.30
2018-12-15T02:20:51.631Z,39.10
2018-12-15T02:21:51.624Z,38.20
2018-12-15T02:22:51.603Z,41.10
2018-12-15T02:23:51.642Z,40.30
2018-12-15T02:24:51.607Z,39.90
2018-12-15T02:25:51.568Z,39.40
2018-12-15T02:26:51.571Z,39.00
2018-12-15T02:27:51.552Z,40.40
2018-12-15T02:28:51.532Z,41.70
2018-12-15T02:29:51.581Z,39.50
2018-12-15T02:30:51.515Z,41.80
2018-12-15T02:31:51.495Z,40.40
2018-12-15T02:32:51.494Z,42.50
2018-12-15T02:33:51.479Z,40.70
2018-12-15T02:34:51.462Z,41.70
2018-12-15T02:35:51.492Z,38.60
2018-12-15T02:36:51.447Z,41.40
2018-12-15T02:37:51.442Z,42.00
2018-12-15T02:38:51.448Z,41.60
2018-12-15T02:39:51.413Z,39.60
2018-12-15T02:40:51.430Z,42.40
2018-12-15T02:41:51.388Z,42.20
2018-12-15T02:42:51.404Z,41.90
2018-12-15T02:43:51.385Z,42.50
2018-12-15T02:44:51.376Z,40.40
2018-12-15T02:45:51.384Z,43.50
2018-12-15T02:46:51.337Z,41.60
2018-12-15T02:47:51.354Z,44.70
2018-12-15T02:48:51.314Z,41.50
2018-12-15T02:49:51.303Z,43.00
2018-12-15T02:50:51.293Z,43.10
2018-12-15T02:51:51.353Z,42.90
2018-12-15T02:52:51.279Z,41.90
2018-12-15T02:53:51.271Z,43.00
2018-12-15T02:54:51.255Z,44.40
2018-12-15T02:55:51.238Z,44.80
2018-12-15T02:56:51.246Z,44.40
2018-12-15T02:57:51.213Z,43.10
2018-12-15T02:58:51.229Z,43.70
2018-12-15T02:59:51.190Z,43.70
2018-12-15T03:00:51.185Z,44.70
2018-12-15T03:01:51.227Z,44.70
2018-12-15T03:02:51.159Z,44.90
2018-12-15T03:03:51.147Z,45.40
2018-12-15T03:04:51.143Z,46.50
2018-12-15T03:05:51.145Z,45.80
2018-12-15T03:06:51.177Z,44.30
2018-12-15T03:07:51.110Z,45.90
2018-12-15T03:08:51.122Z,44.80
2018-12-15T03:09:51.128Z,45.40
2018-12-15T03:10:51.093Z,43.90
2018-12-15T03:11:51.066Z,46.20
2018-12-15T03:12:51.069Z,44.90
2018-12-15T03:13:51.050Z,43.20
2018-12-15T03:14:51.026Z,46.20
2018-12-15T03:15:51.022Z,45.20
2018-12-15T03:16:51.012Z,47.20
2018-12-15T03:17:51.045Z,48.90
2018-12-15T03:18:51.020Z,46.50
2018-12-15T03:19:50.990Z,47.50
2018-12-15T03:20:50.985Z,46.70
2018-12-15T03:21:50.963Z,45.90
2018-12-15T03:22:50.986Z,45.90
2018-12-15T03:23:50.941Z,47.80
2018-12-15T03:24:50.917Z,48.10
2018-12-15T03:25:50.922Z,46.30
2018-12-15T03:26:50.928Z,47.60
2018-12-15T03:27:50.910Z,46.00
2018-12-15T03:28:50.903Z,46.10
2018-12-15T03:29:50.907Z,45.30
2018-12-15T03:30:50.861Z,47.30
2018-12-15T03:31:50.844Z,47.00
2018-12-15T03:32:50.831Z,47.50
2018-12-15T03:33:50.840Z,48.70
2018-12-15T03:34:50.808Z,46.70
2018-12-15T03:35:50.799Z,47.70
2018-12-15T03:36:50.793Z,47.40
2018-12-15T03:37:50.805Z,47.90
2018-12-15T03:38:50.802Z,49.60
2018-12-15T03:39:50.759Z,46.40
2018-12-15T03:40:50.749Z,50.20
2018-12-15T03:41:50.738Z,49.30
2018-12-15T03:42:50.739Z,47.20
2018-12-15T03:43:50.726Z,48.30
2018-12-15T03:44:50.718Z,49.70
2018-12-15T03:45:50.738Z,49.80
2018-12-15T03:46:50.714Z,48.70
2018-12-15T03:47:56.242Z,49.90
2018-12-15T03:48:51.657Z,47.90
2018-12-15T03:49:50.691Z,49.10
2018-12-15T03:50:50.635Z,50.80
2018-12-15T03:51:50.654Z,48.80
2018-12-15T03:52:50.637Z,48.00
2018-12-15T03:53:50.613Z,51.50
2018-12-15T03:54:50.609Z,49.20
2018-12-15T03:55:50.586Z,49.10
2018-12-15T03:56:50.580Z,48.00
2018-12-15T03:57:50.574Z,52.70
2018-12-15T03:58:50.559Z,48.10
2018-12-15T03:59:50.593Z,49.10
2018-12-15T04:00:50.590Z,49.90
2018-12-15T04:01:50.527Z,50.70
2018-12-15T04:02:50.513Z,48.60
2018-12-15T04:03:50.505Z,49.80
2018-12-15T04:04:50.521Z,50.40
2018-12-15T04:05:50.480Z,49.60
2018-12-15T04:06:50.524Z,48.80
2018-12-15T04:07:50.457Z,49.70
2018-12-15T04:08:50.447Z,48.50
2018-12-15T04:09:50.461Z,49.70
2018-12-15T04:10:50.457Z,50.20
2018-12-15T04:11:50.410Z,50.50
2018-12-15T04:12:50.398Z,50.00
2018-12-15T04:13:50.389Z,51.20
2018-12-15T04:14:50.405Z,48.80
2018-12-15T04:15:50.397Z,48.70
2018-12-15T04:16:50.354Z,48.70
2018-12-15T04:17:50.349Z,47.40
2018-12-15T04:18:50.360Z,48.40
2018-12-15T04:19:50.321Z,48.20
2018-12-15T04:20:50.345Z,47.80
2018-12-15T04:21:50.333Z,49.10
2018-12-15T04:22:50.291Z,49.50
2018-12-15T04:23:50.290Z,49.70
2018-12-15T04:24:50.269Z,48.30
2018-12-15T04:25:50.303Z,49.20
2018-12-15T04:26:50.273Z,46.70
2018-12-15T04:27:50.258Z,49.50
2018-12-15T04:28:50.225Z,46.90
2018-12-15T04:29:50.215Z,46.40
2018-12-15T04:30:50.206Z,50.20
2018-12-15T04:31:50.210Z,47.80
2018-12-15T04:32:50.193Z,48.00
2018-12-15T04:33:50.221Z,47.40
2018-12-15T04:34:50.162Z,47.20
2018-12-15T04:35:50.165Z,45.60
2018-12-15T04:36:50.236Z,46.70
2018-12-15T04:37:50.126Z,47.10
2018-12-15T04:38:50.142Z,46.30
2018-12-15T04:39:50.132Z,46.10
2018-12-15T04:40:50.093Z,45.90
2018-12-15T04:41:50.122Z,48.60
2018-12-15T04:42:50.110Z,47.00
2018-12-15T04:43:50.063Z,45.80
2018-12-15T04:44:50.053Z,44.20
2018-12-15T04:45:50.041Z,44.80
2018-12-15T04:46:50.099Z,48.00
2018-12-15T04:47:50.056Z,48.80
2018-12-15T04:48:50.008Z,48.00
2018-12-15T04:49:49.995Z,45.10
2018-12-15T04:50:50.009Z,47.10
2018-12-15T04:51:49.987Z,46.50
2018-12-15T04:52:50.001Z,45.60
2018-12-15T04:53:49.966Z,45.50
2018-12-15T04:54:49.944Z,47.50
2018-12-15T04:55:49.931Z,46.70
2018-12-15T04:56:49.923Z,46.70
2018-12-15T04:57:49.937Z,47.70
2018-12-15T04:58:49.920Z,47.90
2018-12-15T04:59:49.885Z,46.70
2018-12-15T05:00:49.880Z,44.50
2018-12-15T05:01:49.891Z,45.80
2018-12-15T05:02:49.852Z,44.80
2018-12-15T05:03:49.899Z,46.30
2018-12-15T05:04:49.837Z,47.70
2018-12-15T05:05:49.818Z,44.00
2018-12-15T05:06:49.810Z,45.20
2018-12-15T05:07:49.828Z,46.10
2018-12-15T05:08:49.812Z,46.80
2018-12-15T05:09:49.792Z,47.20
2018-12-15T05:10:49.793Z,44.50
2018-12-15T05:11:49.758Z,44.30
2018-12-15T05:12:49.753Z,45.00
2018-12-15T05:13:49.771Z,43.50
2018-12-15T05:14:49.725Z,44.10
2018-12-15T05:15:49.716Z,42.60
2018-12-15T05:16:49.700Z,42.70
2018-12-15T05:17:49.719Z,45.50
2018-12-15T05:18:49.684Z,44.30
2018-12-15T05:19:49.701Z,44.10
2018-12-15T05:20:49.660Z,45.20
2018-12-15T05:21:49.651Z,43.90
2018-12-15T05:22:49.648Z,46.10
2018-12-15T05:23:49.633Z,45.20
2018-12-15T05:24:49.691Z,41.90
2018-12-15T05:25:49.674Z,43.30
2018-12-15T05:26:49.602Z,44.50
2018-12-15T05:27:49.587Z,44.20
2018-12-15T05:28:49.595Z,44.80
2018-12-15T05:29:49.591Z,44.20
2018-12-15T05:30:49.556Z,47.00
2018-12-15T05:31:49.563Z,44.20
2018-12-15T05:32:49.544Z,43.70
2018-12-15T05:33:49.519Z,41.70
2018-12-15T05:34:49.523Z,44.60
2018-12-15T05:35:49.524Z,43.60
2018-12-15T05:36:49.488Z,44.90
2018-12-15T05:37:49.481Z,42.50
2018-12-15T05:38:49.472Z,41.80
2018-12-15T05:39:49.454Z,40.70
2018-12-15T05:40:49.487Z,42.70
2018-12-15T05:41:49.478Z,40.40
2018-12-15T05:42:49.419Z,40.70
2018-12-15T05:43:49.424Z,40.90
2018-12-15T05:44:49.402Z,41.80
2018-12-15T05:45:49.440Z,39.80
2018-12-15T05:46:49.377Z,41.60
2018-12-15T05:47:49.370Z,40.80
2018-12-15T05:48:49.353Z,41.70
2018-12-15T05:49:49.379Z,40.90
2018-12-15T05:50:49.347Z,39.10
2018-12-15T05:51:49.365Z,39.10
2018-12-15T05:52:49.336Z,37.50
2018-12-15T05:53:49.299Z,39.90
2018-12-15T05:54:49.292Z,38.60
2018-12-15T05:55:49.308Z,38.60
2018-12-15T05:56:49.302Z,38.20
2018-12-15T05:57:49.256Z,38.60
2018-12-15T05:58:49.279Z,37.40
2018-12-15T05:59:49.245Z,37.40
2018-12-15T06:00:49.230Z,38.40
2018-12-15T06:01:49.258Z,36.80
2018-12-15T06:02:49.209Z,34.00
2018-12-15T06:03:49.236Z,35.50
2018-12-15T06:04:49.184Z,35.20
2018-12-15T06:05:49.231Z,35.50
2018-12-15T06:06:49.163Z,34.40
2018-12-15T06:07:49.169Z,35.60
2018-12-15T06:08:49.135Z,35.20
2018-12-15T06:09:49.143Z,36.10
2018-12-15T06:10:49.135Z,35.50
2018-12-15T06:11:49.114Z,37.30
2018-12-15T06:12:49.198Z,33.40
2018-12-15T06:13:49.122Z,34.80
2018-12-15T06:14:49.078Z,34.40
2018-12-15T06:15:49.071Z,33.50
2018-12-15T06:16:49.078Z,33.70
2018-12-15T06:17:49.158Z,32.70
2018-12-15T06:18:49.028Z,32.20
2018-12-15T06:19:49.029Z,34.60
2018-12-15T06:20:49.013Z,33.50
2018-12-15T06:21:49.029Z,34.80
2018-12-15T06:22:49.009Z,31.80
2018-12-15T06:23:49.050Z,31.80
2018-12-15T06:24:48.981Z,32.70
2018-12-15T06:25:48.963Z,32.20
2018-12-15T06:26:48.942Z,31.70
2018-12-15T06:27:48.975Z,32.20
2018-12-15T06:28:48.942Z,32.60
2018-12-15T06:29:48.933Z,30.70
2018-12-15T06:30:48.943Z,31.30
2018-12-15T06:31:48.894Z,31.40
2018-12-15T06:32:48.875Z,32.70
2018-12-15T06:33:48.904Z,31.90
2018-12-15T06:34:48.856Z,30.90
2018-12-15T06:35:48.845Z,32.00
2018-12-15T06:36:48.853Z,31.90
2018-12-15T06:37:48.823Z,29.60
2018-12-15T06:38:48.815Z,31.80
2018-12-15T06:39:48.836Z,30.40
2018-12-15T06:40:48.788Z,30.60
2018-12-15T06:41:48.782Z,28.70
2018-12-15T06:42:48.766Z,29.80
2018-12-15T06:43:48.763Z,31.40
2018-12-15T06:44:48.794Z,31.90
2018-12-15T06:45:48.735Z,30.90
2018-12-15T06:46:48.728Z,30.90
2018-12-15T06:47:48.723Z,30.70
2018-12-15T06:48:48.716Z,29.10
2018-12-15T06:49:48.736Z,29.90
2018-12-15T06:50:48.683Z,29.20
2018-12-15T06:51:48.696Z,29.30
2018-12-15T06:52:48.659Z,30.20
2018-12-15T06:53:48.655Z,29.80
2018-12-15T06:54:48.668Z,29.70
2018-12-15T06:55:48.666Z,27.90
2018-12-15T06:56:48.625Z,29.30
2018-12-15T06:57:48.609Z,29.30
2018-12-15T06:58:48.591Z,29.10
2018-12-15T06:59:48.584Z,27.40
2018-12-15T07:00:48.592Z,28.20
2018-12-15T07:01:48.559Z,28.60
2018-12-15T07:02:48.566Z,30.50
2018-12-15T07:03:48.566Z,27.10
2018-12-15T07:04:48.533Z,28.20
2018-12-15T07:05:48.571Z,27.70
2018-12-15T07:06:48.539Z,28.80
2018-12-15T07:07:48.498Z,27.10
2018-12-15T07:08:48.491Z,27.20
2018-12-15T07:09:48.486Z,27.70
2018-12-15T07:10:48.504Z,28.00
2018-12-15T07:11:48.457Z,27.20
2018-12-15T07:12:48.464Z,26.40
2018-12-15T07:13:48.431Z,28.60
2018-12-15T07:14:48.417Z,28.50
2018-12-15T07:15:48.444Z,28.90
2018-12-15T07:16:48.400Z,26.70
2018-12-15T07:17:48.418Z,27.70
2018-12-15T07:18:48.378Z,27.60
2018-12-15T07:19:48.367Z,29.50
2018-12-15T07:20:48.353Z,26.20
2018-12-15T07:21:48.344Z,27.60
2018-12-15T07:22:48.360Z,28.40
2018-12-15T07:23:48.348Z,28.10
2018-12-15T07:24:48.319Z,26.00
2018-12-15T07:25:48.311Z,26.50
2018-12-15T07:26:48.300Z,27.40
2018-12-15T07:27:48.302Z,28.10
2018-12-15T07:28:48.268Z,28.00
2018-12-15T07:29:48.254Z,26.60
2018-12-15T07:30:48.250Z,28.80
2018-12-15T07:31:48.234Z,26.70
2018-12-15T07:32:48.256Z,26.80
2018-12-15T07:33:48.213Z,26.50
2018-12-15T07:34:48.232Z,27.00
2018-12-15T07:35:48.202Z,26.70
2018-12-15T07:36:48.185Z,27.10
2018-12-15T07:37:48.215Z,27.00
2018-12-15T07:38:48.164Z,27.00
2018-12-15T07:39:48.146Z,26.00
2018-12-15T07:40:48.135Z,26.60
2018-12-15T07:41:48.157Z,28.70
2018-12-15T07:42:48.142Z,27.30
2018-12-15T07:43:48.119Z,28.80
2018-12-15T07:44:48.092Z,25.40
2018-12-15T07:45:48.092Z,27.10
2018-12-15T07:46:48.080Z,28.20
2018-12-15T07:47:48.056Z,26.20
2018-12-15T07:48:51.337Z,28.80
2018-12-15T07:49:48.064Z,26.70
2018-12-15T07:50:48.028Z,26.90
2018-12-15T07:51:48.017Z,26.70
2018-12-15T07:52:48.015Z,28.80
2018-12-15T07:53:48.016Z,27.30
2018-12-15T07:54:47.984Z,27.10
2018-12-15T07:55:47.978Z,27.10
2018-12-15T07:56:47.972Z,27.50
2018-12-15T07:57:47.958Z,26.10
2018-12-15T07:58:47.974Z,27.20
2018-12-15T07:59:47.937Z,26.80
2018-12-15T08:00:47.919Z,26.70
2018-12-15T08:01:47.919Z,27.50
2018-12-15T08:02:47.918Z,28.20
2018-12-15T08:03:47.904Z,28.50
2018-12-15T08:04:47.894Z,27.20
2018-12-15T08:05:47.860Z,28.30
2018-12-15T08:06:47.856Z,28.60
2018-12-15T08:07:47.862Z,27.20
2018-12-15T08:08:47.862Z,28.10
2018-12-15T08:09:47.822Z,28.90
2018-12-15T08:10:47.828Z,27.90
2018-12-15T08:11:47.802Z,27.60
2018-12-15T08:12:47.794Z,26.90
2018-12-15T08:13:47.798Z,27.60
2018-12-15T08:14:47.765Z,27.30
2018-12-15T08:15:47.758Z,26.80
2018-12-15T08:16:47.757Z,27.60
2018-12-15T08:17:47.734Z,27.90
2018-12-15T08:18:47.779Z,27.10
2018-12-15T08:19:47.721Z,27.70
2018-12-15T08:20:47.699Z,28.80
2018-12-15T08:21:47.729Z,28.70
2018-12-15T08:22:47.698Z,29.60
2018-12-15T08:23:47.692Z,28.80
2018-12-15T08:24:47.654Z,30.00
2018-12-15T08:25:47.656Z,27.70
2018-12-15T08:26:47.633Z,28.10
2018-12-15T08:27:47.659Z,28.80
2018-12-15T08:28:47.616Z,27.70
2018-12-15T08:29:47.617Z,28.20
2018-12-15T08:30:47.611Z,27.20
2018-12-15T08:31:47.591Z,26.90
2018-12-15T08:32:47.606Z,27.40
2018-12-15T08:33:47.567Z,27.50
2018-12-15T08:34:47.548Z,27.40
2018-12-15T08:35:47.536Z,28.50
2018-12-15T08:36:47.522Z,26.20
2018-12-15T08:37:47.531Z,25.60
2018-12-15T08:38:47.514Z,27.00
2018-12-15T08:39:47.499Z,28.00
2018-12-15T08:40:47.495Z,26.60
2018-12-15T08:41:47.473Z,27.10
2018-12-15T08:42:47.500Z,28.20
2018-12-15T08:43:47.453Z,27.30
2018-12-15T08:44:47.443Z,26.30
2018-12-15T08:45:47.454Z,26.90
2018-12-15T08:46:47.432Z,27.20
2018-12-15T08:47:47.444Z,25.80
2018-12-15T08:48:47.404Z,25.00
2018-12-15T08:49:47.383Z,25.30
2018-12-15T08:50:47.372Z,25.70
2018-12-15T08:51:47.376Z,27.40
2018-12-15T08:52:47.462Z,25.20
2018-12-15T08:53:47.340Z,25.10
2018-12-15T08:54:47.333Z,25.20
2018-12-15T08:55:47.316Z,26.60
2018-12-15T08:56:47.308Z,26.40
2018-12-15T08:57:47.359Z,26.70
2018-12-15T08:58:47.313Z,26.10
2018-12-15T08:59:47.275Z,26.30
2018-12-15T09:00:47.278Z,26.40
2018-12-15T09:01:47.259Z,27.00
2018-12-15T09:02:47.282Z,28.10
2018-12-15T09:03:47.334Z,27.70
2018-12-15T09:04:47.222Z,27.30
2018-12-15T09:05:47.231Z,27.70
2018-12-15T09:06:47.210Z,25.60
2018-12-15T09:07:47.186Z,26.70
2018-12-15T09:08:47.217Z,27.20
2018-12-15T09:09:47.162Z,26.40
2018-12-15T09:10:47.152Z,27.70
2018-12-15T09:11:47.171Z,28.70
2018-12-15T09:12:47.132Z,27.60
2018-12-15T09:13:47.446Z,28.10
2018-12-15T09:14:47.111Z,26.60
2018-12-15T09:15:47.119Z,27.10
2018-12-15T09:16:47.089Z,27.30
2018-12-15T09:17:47.080Z,27.10
2018-12-15T09:18:47.113Z,26.40
2018-12-15T09:19:47.055Z,26.60
2018-12-15T09:20:47.125Z,27.00
2018-12-15T09:21:47.058Z,29.80
2018-12-15T09:22:47.065Z,27.00
2018-12-15T09:23:47.036Z,26.20
2018-12-15T09:24:47.012Z,27.50
2018-12-15T09:25:46.988Z,27.70
2018-12-15T09:26:46.989Z,25.30
2018-12-15T09:27:46.988Z,26.00
2018-12-15T09:28:47.008Z,27.90
2018-12-15T09:29:46.951Z,27.30
2018-12-15T09:30:46.949Z,27.20
2018-12-15T09:31:46.964Z,27.80
2018-12-15T09:32:46.967Z,28.60
2018-12-15T09:33:46.922Z,26.80
2018-12-15T09:34:46.938Z,26.00
2018-12-15T09:35:46.894Z,27.00
2018-12-15T09:36:46.893Z,27.30
2018-12-15T09:37:46.866Z,27.20
2018-12-15T09:38:46.854Z,27.50
2018-12-15T09:39:46.867Z,28.30
2018-12-15T09:40:46.833Z,27.40
2018-12-15T09:41:46.824Z,26.90
2018-12-15T09:42:46.814Z,27.30
2018-12-15T09:43:46.796Z,28.00
2018-12-15T09:44:46.803Z,28.80
2018-12-15T09:45:46.777Z,26.90
2018-12-15T09:46:46.776Z,27.00
2018-12-15T09:47:46.793Z,27.50
2018-12-15T09:48:46.943Z,26.80
2018-12-15T09:49:46.744Z,27.00
2018-12-15T09:50:46.747Z,27.70
2018-12-15T09:51:46.712Z,26.10
2018-12-15T09:52:46.760Z,25.70
2018-12-15T09:53:46.721Z,26.90
2018-12-15T09:54:46.678Z,25.40
2018-12-15T09:55:46.670Z,27.10
2018-12-15T09:56:46.658Z,27.40
2018-12-15T09:57:46.645Z,27.10
2018-12-15T09:58:46.677Z,26.90
2018-12-15T09:59:46.629Z,25.70
2018-12-15T10:00:46.611Z,25.00
2018-12-15T10:01:46.609Z,27.20
2018-12-15T10:02:46.604Z,27.30
2018-12-15T10:03:46.615Z,26.20
2018-12-15T10:04:46.565Z,27.40
2018-12-15T10:05:46.579Z,27.30
2018-12-15T10:06:46.551Z,27.70
2018-12-15T10:07:46.542Z,28.50
2018-12-15T10:08:46.535Z,28.00
2018-12-15T10:09:46.529Z,28.10
2018-12-15T10:10:46.506Z,26.90
2018-12-15T10:11:46.501Z,28.90
2018-12-15T10:12:46.484Z,28.00
2018-12-15T10:13:46.475Z,27.80
2018-12-15T10:14:46.492Z,28.60
2018-12-15T10:15:46.446Z,29.50
2018-12-15T10:16:46.443Z,27.70
2018-12-15T10:17:46.443Z,28.60
2018-12-15T10:18:46.418Z,28.30
2018-12-15T10:19:46.444Z,27.60
2018-12-15T10:20:46.410Z,28.70
2018-12-15T10:21:46.403Z,29.50
2018-12-15T10:22:46.393Z,28.00
2018-12-15T10:23:46.394Z,27.70
2018-12-15T10:24:46.359Z,28.20
2018-12-15T10:25:46.391Z,27.00
2018-12-15T10:26:46.356Z,29.40
2018-12-15T10:27:46.322Z,27.80
2018-12-15T10:28:46.317Z,28.80
2018-12-15T10:29:46.300Z,26.90
2018-12-15T10:30:46.339Z,27.50
2018-12-15T10:31:46.300Z,27.50
2018-12-15T10:32:46.262Z,28.70
2018-12-15T10:33:46.250Z,27.50
2018-12-15T10:34:46.270Z,27.00
2018-12-15T10:35:46.266Z,27.60
2018-12-15T10:36:46.218Z,28.30
2018-12-15T10:37:46.236Z,28.50
2018-12-15T10:38:46.217Z,27.60
2018-12-15T10:39:46.221Z,28.00
2018-12-15T10:40:46.186Z,28.10
2018-12-15T10:41:46.163Z,27.60
2018-12-15T10:42:46.221Z,27.90
2018-12-15T10:43:46.185Z,26.70
2018-12-15T10:44:46.159Z,29.20
2018-12-15T10:45:46.137Z,27.40
2018-12-15T10:46:46.117Z,28.00
2018-12-15T10:47:46.105Z,29.80
2018-12-15T10:48:46.093Z,27.30
2018-12-15T10:49:46.107Z,28.70
2018-12-15T10:50:46.070Z,27.80
2018-12-15T10:51:46.100Z,28.10
2018-12-15T10:52:46.086Z,28.90
2018-12-15T10:53:46.046Z,31.00
2018-12-15T10:54:46.024Z,30.80
2018-12-15T10:55:46.054Z,31.20
2018-12-15T10:56:46.012Z,30.60
2018-12-15T10:57:46.002Z,30.60
2018-12-15T10:58:45.980Z,31.10
2018-12-15T10:59:45.972Z,29.50
2018-12-15T11:00:45.990Z,28.70
2018-12-15T11:01:45.993Z,28.80
2018-12-15T11:02:45.936Z,29.40
2018-12-15T11:03:45.955Z,28.70
2018-12-15T11:04:45.929Z,30.40
2018-12-15T11:05:45.978Z,28.20
2018-12-15T11:06:45.943Z,31.00
2018-12-15T11:07:45.888Z,28.20
2018-12-15T11:08:45.877Z,28.50
2018-12-15T11:09:45.886Z,29.00
2018-12-15T11:10:45.856Z,28.80
2018-12-15T11:11:45.857Z,30.20
2018-12-15T11:12:45.848Z,30.80
2018-12-15T11:13:45.836Z,29.20
2018-12-15T11:14:45.813Z,29.50
2018-12-15T11:15:45.803Z,27.60
2018-12-15T11:16:45.813Z,30.30
2018-12-15T11:17:45.791Z,30.60
2018-12-15T11:18:45.770Z,29.10
2018-12-15T11:19:45.758Z,28.90
2018-12-15T11:20:45.744Z,30.40
2018-12-15T11:21:45.770Z,29.10
2018-12-15T11:22:45.724Z,30.10
2018-12-15T11:23:45.715Z,30.70
2018-12-15T11:24:45.713Z,30.10
2018-12-15T11:25:45.692Z,28.70
2018-12-15T11:26:45.683Z,30.70
2018-12-15T11:27:45.685Z,30.50
2018-12-15T11:28:45.655Z,27.70
2018-12-15T11:29:45.651Z,29.30
2018-12-15T11:30:45.682Z,29.70
2018-12-15T11:31:45.637Z,29.90
2018-12-15T11:32:45.642Z,29.40
2018-12-15T11:33:45.635Z,29.00
2018-12-15T11:34:45.603Z,30.20
2018-12-15T11:35:45.627Z,29.00
2018-12-15T11:36:45.584Z,32.10
2018-12-15T11:37:45.565Z,30.50
2018-12-15T11:38:45.559Z,28.60
2018-12-15T11:39:45.561Z,30.30
2018-12-15T11:40:45.534Z,28.80
2018-12-15T11:41:45.515Z,29.60
2018-12-15T11:42:45.503Z,30.20
2018-12-15T11:43:45.512Z,30.20
2018-12-15T11:44:45.504Z,29.80
2018-12-15T11:45:45.467Z,30.20
2018-12-15T11:46:45.464Z,28.30
2018-12-15T11:47:45.449Z,30.90
2018-12-15T11:48:45.440Z,29.10
2018-12-15T11:49:45.469Z,29.20
2018-12-15T11:50:45.420Z,29.70
2018-12-15T11:51:45.412Z,28.30
2018-12-15T11:52:45.406Z,28.20
2018-12-15T11:53:45.385Z,30.70
2018-12-15T11:54:45.408Z,29.50
2018-12-15T11:55:45.369Z,29.20
2018-12-15T11:56:45.351Z,29.80
2018-12-15T11:57:45.344Z,28.90
2018-12-15T11:58:45.332Z,30.10
2018-12-15T11:59:45.329Z,29.20
2018-12-15T12:00:45.347Z,28.80
2018-12-15T12:01:45.299Z,27.30
2018-12-15T12:02:45.294Z,28.70
2018-12-15T12:03:45.272Z,28.80
2018-12-15T12:04:45.292Z,29.10
2018-12-15T12:05:45.256Z,28.50
2018-12-15T12:06:45.246Z,29.10
2018-12-15T12:07:45.242Z,29.70
2018-12-15T12:08:45.249Z,30.10
2018-12-15T12:09:45.240Z,29.70
2018-12-15T12:10:45.205Z,29.20
2018-12-15T12:11:45.188Z,28.60
2018-12-15T12:12:45.204Z,27.70
2018-12-15T12:13:45.173Z,29.40
2018-12-15T12:14:45.201Z,28.50
2018-12-15T12:15:45.146Z,29.80
2018-12-15T12:16:45.132Z,30.70
2018-12-15T12:17:45.119Z,29.50
2018-12-15T12:18:45.124Z,28.60
2018-12-15T12:19:50.218Z,30.70
2018-12-15T12:20:46.116Z,29.90
2018-12-15T12:21:45.077Z,30.00
2018-12-15T12:22:45.071Z,28.60
2018-12-15T12:23:45.083Z,30.70
2018-12-15T12:24:45.069Z,29.10
2018-12-15T12:25:45.055Z,29.80
2018-12-15T12:26:45.041Z,29.70
2018-12-15T12:27:45.028Z,29.10
2018-12-15T12:28:45.022Z,29.80
2018-12-15T12:29:44.989Z,31.40
2018-12-15T12:30:44.987Z,30.50
2018-12-15T12:31:44.990Z,29.80
2018-12-15T12:32:44.960Z,28.90
2018-12-15T12:33:44.959Z,29.90
2018-12-15T12:34:44.937Z,29.60
2018-12-15T12:35:44.931Z,31.00
2018-12-15T12:36:44.945Z,28.90
2018-12-15T12:37:44.918Z,31.00
2018-12-15T12:38:44.910Z,30.90
2018-12-15T12:39:44.905Z,30.30
2018-12-15T12:40:44.882Z,30.10
2018-12-15T12:41:44.866Z,29.60
2018-12-15T12:42:44.871Z,29.30
2018-12-15T12:43:44.852Z,31.10
2018-12-15T12:44:44.830Z,29.90
2018-12-15T12:45:44.833Z,31.80
2018-12-15T12:46:44.843Z,29.30
2018-12-15T12:47:44.830Z,29.60
2018-12-15T12:48:44.788Z,29.40
2018-12-15T12:49:44.836Z,29.70
2018-12-15T12:50:44.773Z,29.80
2018-12-15T12:51:44.793Z,30.40
2018-12-15T12:52:44.766Z,28.50